Impacts METAR Board INFO
IDs:

KCVG - Cincinnati Intl, KY, US

Updated at: 0816 UTC 15 Dec 2017
Potential Impact None Slight Moderate High
Time14/20Z 14/21Z 14/22Z 14/23Z 15/00Z 15/01Z 15/02Z 15/03Z 15/04Z 15/05Z 15/06Z 15/07Z 15/08Z
VIS10 10 10 10 10 10 10 10 10 10 10 10 9
CIG210 200 150 150 250 150 150 200 150 150 140 130 130
CoverBKNBKNBKNOVCOVCOVCOVCOVCOVCOVCOVCOVCOVC
FltCatVFRVFRVFRVFRVFRVFRVFRVFRVFRVFRVFRVFRVFR
WX--------------------------
WDir206031036010406040304036000
WSpd9 5 3 5 5 6 5 6 5 3 4 0 0
WGst-- -- -- -- -- -- -- -- -- -- -- -- --
Raw hourly METARs
KCVG 141952Z 02009KT 10SM SCT025 BKN210 M02/M08 A3003 RMK AO2 SLP174 T10221083
KCVG 142052Z 06005KT 10SM FEW025 BKN200 M03/M08 A3003 RMK AO2 SLP176 T10281083 53001
KCVG 142152Z 31003KT 10SM FEW025 BKN150 M03/M09 A3005 RMK AO2 SLP181 T10331089
KCVG 142252Z 36005KT 10SM BKN150 OVC200 M04/M08 A3006 RMK AO2 SLP187 T10391083
KCVG 142352Z 01005KT 10SM FEW150 OVC250 M04/M08 A3007 RMK AO2 SLP190 T10391083 11017 21044 51012
KCVG 150052Z 04006KT 10SM OVC150 M04/M08 A3007 RMK AO2 SLP190 T10391083
KCVG 150152Z 06005KT 10SM BKN150 OVC250 M04/M08 A3007 RMK AO2 SLP191 T10441083
KCVG 150252Z 04006KT 10SM OVC200 M04/M09 A3007 RMK AO2 SLP193 T10391089 53002
KCVG 150352Z 03005KT 10SM BKN150 OVC200 M04/M08 A3007 RMK AO2 SLP191 T10391083
KCVG 150452Z 04003KT 10SM OVC150 M04/M08 A3006 RMK AO2 SLP187 T10391083 400391050
KCVG 150552Z 36004KT 10SM OVC140 M04/M09 A3005 RMK AO2 SLP186 BINOVC OHD T10441089 11039 21050 56006
KCVG 150652Z 00000KT 10SM OVC130 M04/M08 A3004 RMK AO2 SLP181 BINOVC OHD T10441083
KCVG 150752Z 00000KT 9SM OVC130 M05/M07 A3003 RMK AO2 SLP178 T10501072